sensor_id;sensor_type;location;lat;lon;timestamp;temperature;humidity
46508;DHT22;32223;53.654;10.014;2023-03-11T00:00:35;-0.10;99.90
46508;DHT22;32223;53.654;10.014;2023-03-11T00:03:02;-0.10;99.90
46508;DHT22;32223;53.654;10.014;2023-03-11T00:05:31;-0.10;99.90
46508;DHT22;32223;53.654;10.014;2023-03-11T00:07:58;-0.10;99.90
46508;DHT22;32223;53.654;10.014;2023-03-11T00:10:29;-0.10;99.90
46508;DHT22;32223;53.654;10.014;2023-03-11T00:12:55;0.00;99.90
46508;DHT22;32223;53.654;10.014;2023-03-11T00:15:21;0.00;99.90
46508;DHT22;32223;53.654;10.014;2023-03-11T00:17:47;0.10;99.90
46508;DHT22;32223;53.654;10.014;2023-03-11T00:20:34;0.10;99.90
46508;DHT22;32223;53.654;10.014;2023-03-11T00:23:00;0.00;99.90
46508;DHT22;32223;53.654;10.014;2023-03-11T00:25:28;0.00;99.90
46508;DHT22;32223;53.654;10.014;2023-03-11T00:27:54;0.10;99.90
46508;DHT22;32223;53.654;10.014;2023-03-11T00:30:21;0.10;99.90
46508;DHT22;32223;53.654;10.014;2023-03-11T00:32:51;0.10;99.90
46508;DHT22;32223;53.654;10.014;2023-03-11T00:35:21;0.10;99.90
46508;DHT22;32223;53.654;10.014;2023-03-11T00:37:48;0.10;99.90
46508;DHT22;32223;53.654;10.014;2023-03-11T00:40:18;0.10;99.90
46508;DHT22;32223;53.654;10.014;2023-03-11T00:42:44;0.10;99.90
46508;DHT22;32223;53.654;10.014;2023-03-11T00:45:11;0.10;99.90
46508;DHT22;32223;53.654;10.014;2023-03-11T00:47:37;0.10;99.90
46508;DHT22;32223;53.654;10.014;2023-03-11T00:50:04;0.10;99.90
46508;DHT22;32223;53.654;10.014;2023-03-11T00:52:29;0.10;99.90
46508;DHT22;32223;53.654;10.014;2023-03-11T00:54:55;0.20;99.90
46508;DHT22;32223;53.654;10.014;2023-03-11T00:57:22;0.10;99.90
46508;DHT22;32223;53.654;10.014;2023-03-11T00:59:48;0.20;99.90
46508;DHT22;32223;53.654;10.014;2023-03-11T01:02:13;0.10;99.90
46508;DHT22;32223;53.654;10.014;2023-03-11T01:04:39;0.10;99.90
46508;DHT22;32223;53.654;10.014;2023-03-11T01:07:04;0.10;99.90
46508;DHT22;32223;53.654;10.014;2023-03-11T01:09:30;0.10;99.90
46508;DHT22;32223;53.654;10.014;2023-03-11T01:11:56;0.10;99.90
46508;DHT22;32223;53.654;10.014;2023-03-11T01:14:22;0.10;99.90
46508;DHT22;32223;53.654;10.014;2023-03-11T01:16:48;0.10;99.90
46508;DHT22;32223;53.654;10.014;2023-03-11T01:19:13;0.10;99.90
46508;DHT22;32223;53.654;10.014;2023-03-11T01:21:39;0.10;99.90
46508;DHT22;32223;53.654;10.014;2023-03-11T01:24:05;0.10;99.90
46508;DHT22;32223;53.654;10.014;2023-03-11T01:26:31;0.10;99.90
46508;DHT22;32223;53.654;10.014;2023-03-11T01:28:56;0.00;99.90
46508;DHT22;32223;53.654;10.014;2023-03-11T01:31:22;0.10;99.90
46508;DHT22;32223;53.654;10.014;2023-03-11T01:33:47;0.10;99.90
46508;DHT22;32223;53.654;10.014;2023-03-11T01:36:13;0.10;99.90
46508;DHT22;32223;53.654;10.014;2023-03-11T01:38:39;0.10;99.90
46508;DHT22;32223;53.654;10.014;2023-03-11T01:41:04;0.10;99.90
46508;DHT22;32223;53.654;10.014;2023-03-11T01:48:45;0.10;99.90
46508;DHT22;32223;53.654;10.014;2023-03-11T01:51:11;0.10;99.90
46508;DHT22;32223;53.654;10.014;2023-03-11T01:53:36;0.00;99.90
46508;DHT22;32223;53.654;10.014;2023-03-11T01:56:04;0.00;99.90
46508;DHT22;32223;53.654;10.014;2023-03-11T01:58:34;0.00;99.90
46508;DHT22;32223;53.654;10.014;2023-03-11T02:01:01;-0.10;99.90
46508;DHT22;32223;53.654;10.014;2023-03-11T02:03:32;-0.10;99.90
46508;DHT22;32223;53.654;10.014;2023-03-11T02:06:00;-0.10;99.90
46508;DHT22;32223;53.654;10.014;2023-03-11T02:08:26;-0.10;99.90
46508;DHT22;32223;53.654;10.014;2023-03-11T02:10:54;-0.20;99.90
46508;DHT22;32223;53.654;10.014;2023-03-11T02:13:21;-0.20;99.90
46508;DHT22;32223;53.654;10.014;2023-03-11T02:15:47;-0.20;99.90
46508;DHT22;32223;53.654;10.014;2023-03-11T02:18:13;-0.20;99.90
46508;DHT22;32223;53.654;10.014;2023-03-11T02:23:17;-0.20;99.90
46508;DHT22;32223;53.654;10.014;2023-03-11T02:28:23;-0.20;99.90
46508;DHT22;32223;53.654;10.014;2023-03-11T02:30:51;-0.20;99.90
46508;DHT22;32223;53.654;10.014;2023-03-11T02:33:18;-0.10;99.90
46508;DHT22;32223;53.654;10.014;2023-03-11T02:35:44;-0.20;99.90
46508;DHT22;32223;53.654;10.014;2023-03-11T02:38:09;-0.20;99.90
46508;DHT22;32223;53.654;10.014;2023-03-11T02:40:52;-0.20;99.90
46508;DHT22;32223;53.654;10.014;2023-03-11T02:43:26;-0.30;99.90
46508;DHT22;32223;53.654;10.014;2023-03-11T02:45:52;-0.30;99.90
46508;DHT22;32223;53.654;10.014;2023-03-11T02:48:19;-0.40;99.90
46508;DHT22;32223;53.654;10.014;2023-03-11T02:50:46;-0.40;99.90
46508;DHT22;32223;53.654;10.014;2023-03-11T02:53:12;-0.40;99.90
46508;DHT22;32223;53.654;10.014;2023-03-11T02:55:38;-0.40;99.90
46508;DHT22;32223;53.654;10.014;2023-03-11T02:58:03;-0.50;99.90
46508;DHT22;32223;53.654;10.014;2023-03-11T03:00:29;-0.50;99.90
46508;DHT22;32223;53.654;10.014;2023-03-11T03:02:55;-0.50;99.90
46508;DHT22;32223;53.654;10.014;2023-03-11T03:05:21;-0.60;99.90
46508;DHT22;32223;53.654;10.014;2023-03-11T03:07:47;-0.50;99.90
46508;DHT22;32223;53.654;10.014;2023-03-11T03:10:14;-0.50;99.90
46508;DHT22;32223;53.654;10.014;2023-03-11T03:12:40;-0.60;99.90
46508;DHT22;32223;53.654;10.014;2023-03-11T03:15:07;-0.50;99.90
46508;DHT22;32223;53.654;10.014;2023-03-11T03:17:33;-0.50;99.90
46508;DHT22;32223;53.654;10.014;2023-03-11T03:19:58;-0.50;99.90
46508;DHT22;32223;53.654;10.014;2023-03-11T03:22:24;-0.40;99.90
46508;DHT22;32223;53.654;10.014;2023-03-11T03:24:52;-0.40;99.90
46508;DHT22;32223;53.654;10.014;2023-03-11T03:27:18;-0.50;99.90
46508;DHT22;32223;53.654;10.014;2023-03-11T03:29:43;-0.50;99.90
46508;DHT22;32223;53.654;10.014;2023-03-11T03:32:09;-0.50;99.90
46508;DHT22;32223;53.654;10.014;2023-03-11T03:34:34;-0.50;99.90
46508;DHT22;32223;53.654;10.014;2023-03-11T03:37:00;-0.50;99.90
46508;DHT22;32223;53.654;10.014;2023-03-11T03:39:25;-0.40;99.90
46508;DHT22;32223;53.654;10.014;2023-03-11T03:41:51;-0.40;99.90
46508;DHT22;32223;53.654;10.014;2023-03-11T03:44:17;-0.40;99.90
46508;DHT22;32223;53.654;10.014;2023-03-11T03:46:42;-0.40;99.90
46508;DHT22;32223;53.654;10.014;2023-03-11T03:49:08;-0.40;99.90
46508;DHT22;32223;53.654;10.014;2023-03-11T03:51:33;-0.40;99.90
46508;DHT22;32223;53.654;10.014;2023-03-11T03:53:59;-0.40;99.90
46508;DHT22;32223;53.654;10.014;2023-03-11T03:56:25;-0.30;99.90
46508;DHT22;32223;53.654;10.014;2023-03-11T03:58:50;-0.40;99.90
46508;DHT22;32223;53.654;10.014;2023-03-11T04:01:17;-0.40;99.90
46508;DHT22;32223;53.654;10.014;2023-03-11T04:03:42;-0.40;99.90
46508;DHT22;32223;53.654;10.014;2023-03-11T04:08:44;-0.50;99.90
46508;DHT22;32223;53.654;10.014;2023-03-11T04:11:10;-0.50;99.90
46508;DHT22;32223;53.654;10.014;2023-03-11T04:13:36;-0.50;99.90
46508;DHT22;32223;53.654;10.014;2023-03-11T04:16:03;-0.50;99.90
46508;DHT22;32223;53.654;10.014;2023-03-11T04:18:29;-0.50;99.90
46508;DHT22;32223;53.654;10.014;2023-03-11T04:20:55;-0.50;99.90
46508;DHT22;32223;53.654;10.014;2023-03-11T04:23:20;-0.50;99.90
46508;DHT22;32223;53.654;10.014;2023-03-11T04:25:46;-0.50;99.90
46508;DHT22;32223;53.654;10.014;2023-03-11T04:28:11;-0.50;99.90
46508;DHT22;32223;53.654;10.014;2023-03-11T04:30:38;-0.50;99.90
46508;DHT22;32223;53.654;10.014;2023-03-11T04:33:03;-0.60;99.90
46508;DHT22;32223;53.654;10.014;2023-03-11T04:35:29;-0.50;99.90
46508;DHT22;32223;53.654;10.014;2023-03-11T04:37:54;-0.60;99.90
46508;DHT22;32223;53.654;10.014;2023-03-11T04:40:20;-0.70;99.90
46508;DHT22;32223;53.654;10.014;2023-03-11T04:42:46;-0.70;99.90
46508;DHT22;32223;53.654;10.014;2023-03-11T04:45:11;-0.70;99.90
46508;DHT22;32223;53.654;10.014;2023-03-11T04:47:37;-0.80;99.90
46508;DHT22;32223;53.654;10.014;2023-03-11T04:50:03;-0.80;99.90
46508;DHT22;32223;53.654;10.014;2023-03-11T04:52:29;-0.90;99.90
46508;DHT22;32223;53.654;10.014;2023-03-11T04:54:54;-0.90;99.90
46508;DHT22;32223;53.654;10.014;2023-03-11T04:57:20;-0.90;99.90
46508;DHT22;32223;53.654;10.014;2023-03-11T04:59:46;-1.00;99.90
46508;DHT22;32223;53.654;10.014;2023-03-11T05:02:11;-1.00;99.90
46508;DHT22;32223;53.654;10.014;2023-03-11T05:04:37;-1.10;99.90
46508;DHT22;32223;53.654;10.014;2023-03-11T05:07:03;-1.10;99.90
46508;DHT22;32223;53.654;10.014;2023-03-11T05:09:28;-1.20;99.90
46508;DHT22;32223;53.654;10.014;2023-03-11T05:11:54;-1.20;99.90
46508;DHT22;32223;53.654;10.014;2023-03-11T05:14:20;-1.20;99.90
46508;DHT22;32223;53.654;10.014;2023-03-11T05:16:46;-1.30;99.90
46508;DHT22;32223;53.654;10.014;2023-03-11T05:19:11;-1.30;99.90
46508;DHT22;32223;53.654;10.014;2023-03-11T05:21:55;-1.40;99.90
46508;DHT22;32223;53.654;10.014;2023-03-11T05:24:21;-1.50;99.90
46508;DHT22;32223;53.654;10.014;2023-03-11T05:26:47;-1.50;99.90
46508;DHT22;32223;53.654;10.014;2023-03-11T05:29:13;-1.50;99.90
46508;DHT22;32223;53.654;10.014;2023-03-11T05:31:38;-1.60;99.90
46508;DHT22;32223;53.654;10.014;2023-03-11T05:34:04;-1.70;99.90
46508;DHT22;32223;53.654;10.014;2023-03-11T05:36:30;-1.60;99.90
46508;DHT22;32223;53.654;10.014;2023-03-11T05:38:55;-1.70;99.90
46508;DHT22;32223;53.654;10.014;2023-03-11T05:41:21;-1.70;99.90
46508;DHT22;32223;53.654;10.014;2023-03-11T05:43:47;-1.70;99.90
46508;DHT22;32223;53.654;10.014;2023-03-11T05:46:12;-1.70;99.90
46508;DHT22;32223;53.654;10.014;2023-03-11T05:48:38;-1.70;99.90
46508;DHT22;32223;53.654;10.014;2023-03-11T05:51:08;-1.80;99.90
46508;DHT22;32223;53.654;10.014;2023-03-11T05:53:34;-1.80;99.90
46508;DHT22;32223;53.654;10.014;2023-03-11T05:56:00;-1.80;99.90
46508;DHT22;32223;53.654;10.014;2023-03-11T05:58:27;-1.90;99.90
46508;DHT22;32223;53.654;10.014;2023-03-11T06:00:53;-1.90;99.90
46508;DHT22;32223;53.654;10.014;2023-03-11T06:03:19;-1.90;99.90
46508;DHT22;32223;53.654;10.014;2023-03-11T06:05:46;-2.00;99.90
46508;DHT22;32223;53.654;10.014;2023-03-11T06:08:12;-2.00;99.90
46508;DHT22;32223;53.654;10.014;2023-03-11T06:10:38;-2.00;99.90
46508;DHT22;32223;53.654;10.014;2023-03-11T06:13:04;-2.00;99.90
46508;DHT22;32223;53.654;10.014;2023-03-11T06:15:31;-2.00;99.90
46508;DHT22;32223;53.654;10.014;2023-03-11T06:17:57;-2.00;99.90
46508;DHT22;32223;53.654;10.014;2023-03-11T06:20:24;-2.00;99.90
46508;DHT22;32223;53.654;10.014;2023-03-11T06:22:50;-2.00;99.90
46508;DHT22;32223;53.654;10.014;2023-03-11T06:25:17;-1.90;99.90
46508;DHT22;32223;53.654;10.014;2023-03-11T06:27:43;-2.00;99.90
46508;DHT22;32223;53.654;10.014;2023-03-11T06:30:09;-2.00;99.90
46508;DHT22;32223;53.654;10.014;2023-03-11T06:32:35;-1.90;99.90
46508;DHT22;32223;53.654;10.014;2023-03-11T06:35:05;-2.00;99.90
46508;DHT22;32223;53.654;10.014;2023-03-11T06:37:30;-2.00;99.90
46508;DHT22;32223;53.654;10.014;2023-03-11T06:39:56;-2.00;99.90
46508;DHT22;32223;53.654;10.014;2023-03-11T06:42:22;-1.90;99.90
46508;DHT22;32223;53.654;10.014;2023-03-11T06:44:51;-1.90;99.90
46508;DHT22;32223;53.654;10.014;2023-03-11T06:47:16;-1.80;99.90
46508;DHT22;32223;53.654;10.014;2023-03-11T06:49:42;-1.80;99.90
46508;DHT22;32223;53.654;10.014;2023-03-11T06:52:08;-1.80;99.90
46508;DHT22;32223;53.654;10.014;2023-03-11T06:54:35;-1.70;99.90
46508;DHT22;32223;53.654;10.014;2023-03-11T06:57:01;-1.70;99.90
46508;DHT22;32223;53.654;10.014;2023-03-11T06:59:27;-1.60;99.90
46508;DHT22;32223;53.654;10.014;2023-03-11T07:01:53;-1.60;99.90
46508;DHT22;32223;53.654;10.014;2023-03-11T07:04:19;-1.50;99.90
46508;DHT22;32223;53.654;10.014;2023-03-11T07:06:47;-1.50;99.90
46508;DHT22;32223;53.654;10.014;2023-03-11T07:09:13;-1.50;99.90
46508;DHT22;32223;53.654;10.014;2023-03-11T07:11:39;-1.40;99.90
46508;DHT22;32223;53.654;10.014;2023-03-11T07:14:04;-1.30;99.90
46508;DHT22;32223;53.654;10.014;2023-03-11T07:16:30;-1.30;99.90
46508;DHT22;32223;53.654;10.014;2023-03-11T07:18:58;-1.20;99.90
46508;DHT22;32223;53.654;10.014;2023-03-11T07:21:26;-1.10;99.90
46508;DHT22;32223;53.654;10.014;2023-03-11T07:23:54;-1.00;99.90
46508;DHT22;32223;53.654;10.014;2023-03-11T07:26:20;-1.00;99.90
46508;DHT22;32223;53.654;10.014;2023-03-11T07:28:46;-0.90;99.90
46508;DHT22;32223;53.654;10.014;2023-03-11T07:31:18;-0.90;99.90
46508;DHT22;32223;53.654;10.014;2023-03-11T07:33:44;-0.80;99.90
46508;DHT22;32223;53.654;10.014;2023-03-11T07:36:14;-0.80;99.90
46508;DHT22;32223;53.654;10.014;2023-03-11T07:38:40;-0.70;99.90
46508;DHT22;32223;53.654;10.014;2023-03-11T07:41:06;-0.60;99.90
46508;DHT22;32223;53.654;10.014;2023-03-11T07:43:32;-0.50;99.90
46508;DHT22;32223;53.654;10.014;2023-03-11T07:46:10;-0.40;99.90
46508;DHT22;32223;53.654;10.014;2023-03-11T07:48:37;-0.30;99.90
46508;DHT22;32223;53.654;10.014;2023-03-11T07:51:10;-0.20;99.90
46508;DHT22;32223;53.654;10.014;2023-03-11T07:53:36;-0.10;99.90
46508;DHT22;32223;53.654;10.014;2023-03-11T07:56:03;-0.10;99.90
46508;DHT22;32223;53.654;10.014;2023-03-11T07:58:29;-0.10;99.90
46508;DHT22;32223;53.654;10.014;2023-03-11T08:00:55;0.00;99.90
46508;DHT22;32223;53.654;10.014;2023-03-11T08:03:22;0.10;99.90
46508;DHT22;32223;53.654;10.014;2023-03-11T08:05:49;0.10;99.90
46508;DHT22;32223;53.654;10.014;2023-03-11T08:08:15;0.20;99.90
46508;DHT22;32223;53.654;10.014;2023-03-11T08:10:40;0.30;99.90
46508;DHT22;32223;53.654;10.014;2023-03-11T08:13:06;0.40;99.90
46508;DHT22;32223;53.654;10.014;2023-03-11T08:15:31;0.40;99.90
46508;DHT22;32223;53.654;10.014;2023-03-11T08:17:57;0.50;99.90
46508;DHT22;32223;53.654;10.014;2023-03-11T08:20:23;0.50;99.90
46508;DHT22;32223;53.654;10.014;2023-03-11T08:22:48;0.60;99.90
46508;DHT22;32223;53.654;10.014;2023-03-11T08:25:15;0.70;99.90
46508;DHT22;32223;53.654;10.014;2023-03-11T08:27:40;0.70;99.90
46508;DHT22;32223;53.654;10.014;2023-03-11T08:30:08;0.80;99.90
46508;DHT22;32223;53.654;10.014;2023-03-11T08:32:34;0.80;99.90
46508;DHT22;32223;53.654;10.014;2023-03-11T08:35:00;0.90;99.90
46508;DHT22;32223;53.654;10.014;2023-03-11T08:37:25;0.90;99.90
46508;DHT22;32223;53.654;10.014;2023-03-11T08:39:51;1.00;99.90
46508;DHT22;32223;53.654;10.014;2023-03-11T08:42:17;1.00;99.90
46508;DHT22;32223;53.654;10.014;2023-03-11T08:44:44;1.10;99.90
46508;DHT22;32223;53.654;10.014;2023-03-11T08:47:09;1.10;99.90
46508;DHT22;32223;53.654;10.014;2023-03-11T08:49:37;1.30;99.90
46508;DHT22;32223;53.654;10.014;2023-03-11T08:52:03;1.30;99.90
46508;DHT22;32223;53.654;10.014;2023-03-11T08:54:29;1.30;99.90
46508;DHT22;32223;53.654;10.014;2023-03-11T08:56:54;1.20;99.90
46508;DHT22;32223;53.654;10.014;2023-03-11T08:59:20;1.30;99.90
46508;DHT22;32223;53.654;10.014;2023-03-11T09:01:46;1.30;99.90
46508;DHT22;32223;53.654;10.014;2023-03-11T09:04:12;1.40;99.90
46508;DHT22;32223;53.654;10.014;2023-03-11T09:06:44;1.60;99.90
46508;DHT22;32223;53.654;10.014;2023-03-11T09:09:13;1.60;99.90
46508;DHT22;32223;53.654;10.014;2023-03-11T09:11:38;1.70;99.90
46508;DHT22;32223;53.654;10.014;2023-03-11T09:14:04;1.70;99.90
46508;DHT22;32223;53.654;10.014;2023-03-11T09:16:30;1.80;99.90
46508;DHT22;32223;53.654;10.014;2023-03-11T09:18:56;1.80;99.90
46508;DHT22;32223;53.654;10.014;2023-03-11T09:21:21;1.90;99.90
46508;DHT22;32223;53.654;10.014;2023-03-11T09:23:47;2.00;99.90
46508;DHT22;32223;53.654;10.014;2023-03-11T09:26:14;2.10;99.90
46508;DHT22;32223;53.654;10.014;2023-03-11T09:28:40;2.10;99.90
46508;DHT22;32223;53.654;10.014;2023-03-11T09:31:06;2.20;99.90
46508;DHT22;32223;53.654;10.014;2023-03-11T09:33:38;2.30;99.90
46508;DHT22;32223;53.654;10.014;2023-03-11T09:36:05;2.40;99.90
46508;DHT22;32223;53.654;10.014;2023-03-11T09:38:31;2.40;99.90
46508;DHT22;32223;53.654;10.014;2023-03-11T09:41:21;2.40;99.90
46508;DHT22;32223;53.654;10.014;2023-03-11T09:52:31;2.70;99.90
46508;DHT22;32223;53.654;10.014;2023-03-11T09:54:58;2.90;99.90
46508;DHT22;32223;53.654;10.014;2023-03-11T09:57:28;2.90;99.90
46508;DHT22;32223;53.654;10.014;2023-03-11T09:59:57;3.00;99.90
46508;DHT22;32223;53.654;10.014;2023-03-11T10:02:24;3.10;99.90
46508;DHT22;32223;53.654;10.014;2023-03-11T10:05:01;3.20;99.90
46508;DHT22;32223;53.654;10.014;2023-03-11T10:07:42;3.30;99.90
46508;DHT22;32223;53.654;10.014;2023-03-11T10:10:12;3.30;99.90
46508;DHT22;32223;53.654;10.014;2023-03-11T10:13:03;3.40;99.90
46508;DHT22;32223;53.654;10.014;2023-03-11T10:23:49;3.60;99.90
46508;DHT22;32223;53.654;10.014;2023-03-11T10:31:46;3.90;99.90
46508;DHT22;32223;53.654;10.014;2023-03-11T10:34:16;4.00;99.90
46508;DHT22;32223;53.654;10.014;2023-03-11T10:36:54;4.10;99.90
46508;DHT22;32223;53.654;10.014;2023-03-11T10:39:22;4.20;99.90
46508;DHT22;32223;53.654;10.014;2023-03-11T10:42:05;4.40;99.90
46508;DHT22;32223;53.654;10.014;2023-03-11T10:44:37;4.50;99.90
46508;DHT22;32223;53.654;10.014;2023-03-11T10:47:05;4.70;99.90
46508;DHT22;32223;53.654;10.014;2023-03-11T10:49:31;4.60;99.90
46508;DHT22;32223;53.654;10.014;2023-03-11T10:51:56;4.50;99.90
46508;DHT22;32223;53.654;10.014;2023-03-11T10:56:59;4.40;99.90
46508;DHT22;32223;53.654;10.014;2023-03-11T11:02:01;4.70;99.90
46508;DHT22;32223;53.654;10.014;2023-03-11T11:04:31;4.90;99.90
46508;DHT22;32223;53.654;10.014;2023-03-11T11:07:29;5.10;99.90
46508;DHT22;32223;53.654;10.014;2023-03-11T11:10:22;5.00;99.90
46508;DHT22;32223;53.654;10.014;2023-03-11T11:15:36;4.90;99.90
46508;DHT22;32223;53.654;10.014;2023-03-11T11:18:17;5.00;99.90
46508;DHT22;32223;53.654;10.014;2023-03-11T11:23:37;5.10;99.90
46508;DHT22;32223;53.654;10.014;2023-03-11T11:26:21;5.10;99.90
46508;DHT22;32223;53.654;10.014;2023-03-11T11:29:13;5.20;99.90
46508;DHT22;32223;53.654;10.014;2023-03-11T11:31:41;5.20;99.90
46508;DHT22;32223;53.654;10.014;2023-03-11T11:36:51;5.40;99.90
46508;DHT22;32223;53.654;10.014;2023-03-11T11:39:18;5.40;99.90
46508;DHT22;32223;53.654;10.014;2023-03-11T11:41:45;5.30;99.90
46508;DHT22;32223;53.654;10.014;2023-03-11T11:44:14;5.40;99.90
46508;DHT22;32223;53.654;10.014;2023-03-11T11:46:46;5.60;99.90
46508;DHT22;32223;53.654;10.014;2023-03-11T11:49:30;5.70;99.90
46508;DHT22;32223;53.654;10.014;2023-03-11T11:52:07;5.80;99.90
46508;DHT22;32223;53.654;10.014;2023-03-11T11:54:40;6.10;99.90
46508;DHT22;32223;53.654;10.014;2023-03-11T11:57:11;6.20;99.90
46508;DHT22;32223;53.654;10.014;2023-03-11T11:59:38;6.30;99.90
46508;DHT22;32223;53.654;10.014;2023-03-11T12:05:09;6.70;99.90
46508;DHT22;32223;53.654;10.014;2023-03-11T12:11:00;7.00;99.90
46508;DHT22;32223;53.654;10.014;2023-03-11T12:19:04;7.10;99.90
46508;DHT22;32223;53.654;10.014;2023-03-11T12:27:29;7.50;99.90
46508;DHT22;32223;53.654;10.014;2023-03-11T12:30:02;7.30;99.90
46508;DHT22;32223;53.654;10.014;2023-03-11T12:32:31;7.10;99.90
46508;DHT22;32223;53.654;10.014;2023-03-11T12:35:22;7.10;99.90
46508;DHT22;32223;53.654;10.014;2023-03-11T12:38:01;6.70;99.90
46508;DHT22;32223;53.654;10.014;2023-03-11T12:40:48;6.40;99.90
46508;DHT22;32223;53.654;10.014;2023-03-11T12:45:51;6.40;99.90
46508;DHT22;32223;53.654;10.014;2023-03-11T12:50:52;7.20;99.90
46508;DHT22;32223;53.654;10.014;2023-03-11T12:53:19;8.70;99.90
46508;DHT22;32223;53.654;10.014;2023-03-11T12:56:08;9.50;99.90
46508;DHT22;32223;53.654;10.014;2023-03-11T12:58:56;10.60;99.90
46508;DHT22;32223;53.654;10.014;2023-03-11T13:04:05;11.20;99.90
46508;DHT22;32223;53.654;10.014;2023-03-11T13:09:10;9.30;99.90
46508;DHT22;32223;53.654;10.014;2023-03-11T13:11:42;8.80;99.90
46508;DHT22;32223;53.654;10.014;2023-03-11T13:16:42;7.80;99.90
46508;DHT22;32223;53.654;10.014;2023-03-11T13:19:46;7.40;99.90
46508;DHT22;32223;53.654;10.014;2023-03-11T13:22:42;8.70;99.90
46508;DHT22;32223;53.654;10.014;2023-03-11T13:31:13;11.20;99.80
46508;DHT22;32223;53.654;10.014;2023-03-11T13:41:52;11.00;97.50
46508;DHT22;32223;53.654;10.014;2023-03-11T13:46:46;11.70;96.30
46508;DHT22;32223;53.654;10.014;2023-03-11T13:52:02;11.00;97.60
46508;DHT22;32223;53.654;10.014;2023-03-11T13:54:48;10.10;97.60
46508;DHT22;32223;53.654;10.014;2023-03-11T13:57:35;9.90;98.60
46508;DHT22;32223;53.654;10.014;2023-03-11T14:00:13;9.20;99.90
46508;DHT22;32223;53.654;10.014;2023-03-11T14:02:53;8.70;99.90
46508;DHT22;32223;53.654;10.014;2023-03-11T14:05:29;8.20;99.90
46508;DHT22;32223;53.654;10.014;2023-03-11T14:08:31;7.70;99.90
46508;DHT22;32223;53.654;10.014;2023-03-11T14:13:29;7.40;99.90
46508;DHT22;32223;53.654;10.014;2023-03-11T14:16:13;7.60;99.90
46508;DHT22;32223;53.654;10.014;2023-03-11T14:18:42;8.20;99.90
46508;DHT22;32223;53.654;10.014;2023-03-11T14:21:19;8.60;99.90
46508;DHT22;32223;53.654;10.014;2023-03-11T14:23:47;8.10;99.90
46508;DHT22;32223;53.654;10.014;2023-03-11T14:28:47;7.30;99.90
46508;DHT22;32223;53.654;10.014;2023-03-11T14:31:22;7.00;99.90
46508;DHT22;32223;53.654;10.014;2023-03-11T14:34:17;7.00;99.90
46508;DHT22;32223;53.654;10.014;2023-03-11T14:36:45;7.30;99.90
46508;DHT22;32223;53.654;10.014;2023-03-11T14:39:29;7.60;99.90
46508;DHT22;32223;53.654;10.014;2023-03-11T14:42:00;7.30;99.90
46508;DHT22;32223;53.654;10.014;2023-03-11T14:44:27;7.10;99.90
46508;DHT22;32223;53.654;10.014;2023-03-11T14:47:02;6.70;99.90
46508;DHT22;32223;53.654;10.014;2023-03-11T14:49:29;6.50;99.90
46508;DHT22;32223;53.654;10.014;2023-03-11T14:52:00;6.20;99.90
46508;DHT22;32223;53.654;10.014;2023-03-11T14:54:29;5.90;99.90
46508;DHT22;32223;53.654;10.014;2023-03-11T14:57:15;5.70;99.90
46508;DHT22;32223;53.654;10.014;2023-03-11T14:59:47;5.50;99.90
46508;DHT22;32223;53.654;10.014;2023-03-11T15:02:45;5.30;99.90
46508;DHT22;32223;53.654;10.014;2023-03-11T15:05:34;5.20;99.90
46508;DHT22;32223;53.654;10.014;2023-03-11T15:08:03;5.10;99.90
46508;DHT22;32223;53.654;10.014;2023-03-11T15:10:30;5.10;99.90
46508;DHT22;32223;53.654;10.014;2023-03-11T15:13:13;5.00;99.90
46508;DHT22;32223;53.654;10.014;2023-03-11T15:15:40;5.00;99.90
46508;DHT22;32223;53.654;10.014;2023-03-11T15:18:28;5.00;99.90
46508;DHT22;32223;53.654;10.014;2023-03-11T15:21:14;5.00;99.90
46508;DHT22;32223;53.654;10.014;2023-03-11T15:23:48;5.00;99.90
46508;DHT22;32223;53.654;10.014;2023-03-11T15:26:25;5.00;99.90
46508;DHT22;32223;53.654;10.014;2023-03-11T15:29:14;4.90;99.90
46508;DHT22;32223;53.654;10.014;2023-03-11T15:31:44;4.90;99.90
46508;DHT22;32223;53.654;10.014;2023-03-11T15:44:38;4.80;99.90
46508;DHT22;32223;53.654;10.014;2023-03-11T15:47:17;4.70;99.90
46508;DHT22;32223;53.654;10.014;2023-03-11T15:49:43;4.50;99.90
46508;DHT22;32223;53.654;10.014;2023-03-11T15:52:09;4.10;99.90
46508;DHT22;32223;53.654;10.014;2023-03-11T15:54:35;3.70;99.90
46508;DHT22;32223;53.654;10.014;2023-03-11T15:57:05;3.50;99.90
46508;DHT22;32223;53.654;10.014;2023-03-11T15:59:32;3.20;99.90
46508;DHT22;32223;53.654;10.014;2023-03-11T16:01:58;3.10;99.90
46508;DHT22;32223;53.654;10.014;2023-03-11T16:04:24;3.00;99.90
46508;DHT22;32223;53.654;10.014;2023-03-11T16:06:50;3.00;99.90
46508;DHT22;32223;53.654;10.014;2023-03-11T16:09:16;3.00;99.90
46508;DHT22;32223;53.654;10.014;2023-03-11T16:11:42;3.00;99.90
46508;DHT22;32223;53.654;10.014;2023-03-11T16:14:18;3.00;99.90
46508;DHT22;32223;53.654;10.014;2023-03-11T16:16:45;3.00;99.90
46508;DHT22;32223;53.654;10.014;2023-03-11T16:19:11;3.10;99.90
46508;DHT22;32223;53.654;10.014;2023-03-11T16:21:40;3.20;99.90
46508;DHT22;32223;53.654;10.014;2023-03-11T16:24:07;3.20;99.90
46508;DHT22;32223;53.654;10.014;2023-03-11T16:26:36;3.20;99.90
46508;DHT22;32223;53.654;10.014;2023-03-11T16:29:02;3.00;99.90
46508;DHT22;32223;53.654;10.014;2023-03-11T16:31:27;3.00;99.90
46508;DHT22;32223;53.654;10.014;2023-03-11T16:33:54;2.90;99.90
46508;DHT22;32223;53.654;10.014;2023-03-11T16:36:20;2.70;99.90
46508;DHT22;32223;53.654;10.014;2023-03-11T16:38:49;2.70;99.90
46508;DHT22;32223;53.654;10.014;2023-03-11T16:41:15;2.60;99.90
46508;DHT22;32223;53.654;10.014;2023-03-11T16:43:42;2.50;99.90
46508;DHT22;32223;53.654;10.014;2023-03-11T16:46:07;2.50;99.90
46508;DHT22;32223;53.654;10.014;2023-03-11T16:48:33;2.50;99.90
46508;DHT22;32223;53.654;10.014;2023-03-11T16:50:59;2.50;99.90
46508;DHT22;32223;53.654;10.014;2023-03-11T16:53:25;2.50;99.90
46508;DHT22;32223;53.654;10.014;2023-03-11T16:55:52;2.60;99.90
46508;DHT22;32223;53.654;10.014;2023-03-11T16:58:18;2.50;99.90
46508;DHT22;32223;53.654;10.014;2023-03-11T17:00:44;2.50;99.90
46508;DHT22;32223;53.654;10.014;2023-03-11T17:03:15;2.50;99.90
46508;DHT22;32223;53.654;10.014;2023-03-11T17:05:41;2.50;99.90
46508;DHT22;32223;53.654;10.014;2023-03-11T17:08:07;2.50;99.90
46508;DHT22;32223;53.654;10.014;2023-03-11T17:10:42;2.50;99.90
46508;DHT22;32223;53.654;10.014;2023-03-11T17:13:09;2.40;99.90
46508;DHT22;32223;53.654;10.014;2023-03-11T17:15:36;2.40;99.90
46508;DHT22;32223;53.654;10.014;2023-03-11T17:18:08;2.50;99.90
46508;DHT22;32223;53.654;10.014;2023-03-11T17:20:33;2.40;99.90
46508;DHT22;32223;53.654;10.014;2023-03-11T17:23:00;2.40;99.90
46508;DHT22;32223;53.654;10.014;2023-03-11T17:25:26;2.30;99.90
46508;DHT22;32223;53.654;10.014;2023-03-11T17:27:51;2.20;99.90
46508;DHT22;32223;53.654;10.014;2023-03-11T17:30:17;2.20;99.90